createdAt,value
2023-04-12T00:02:14.987Z,9.36
2023-04-12T00:04:42.985Z,9.34
2023-04-12T00:07:12.129Z,9.34
2023-04-12T00:09:40.022Z,9.34
2023-04-12T00:12:08.933Z,9.32
2023-04-12T00:14:36.680Z,9.29
2023-04-12T00:17:04.616Z,9.28
2023-04-12T00:19:34.105Z,9.26
2023-04-12T00:22:04.562Z,9.24
2023-04-12T00:24:33.517Z,9.24
2023-04-12T00:27:06.141Z,9.21
2023-04-12T00:29:36.920Z,9.19
2023-04-12T00:32:06.030Z,9.16
2023-04-12T00:34:33.923Z,9.14
2023-04-12T00:37:02.303Z,9.10
2023-04-12T00:39:30.611Z,9.06
2023-04-12T00:42:03.565Z,9.02
2023-04-12T00:44:32.955Z,8.99
2023-04-12T00:47:00.960Z,8.95
2023-04-12T00:49:30.936Z,8.92
2023-04-12T00:52:03.392Z,8.88
2023-04-12T00:54:33.495Z,8.88
2023-04-12T00:57:01.465Z,8.88
2023-04-12T00:59:29.370Z,8.86
2023-04-12T01:01:57.590Z,8.87
2023-04-12T01:04:26.947Z,8.86
2023-04-12T01:07:15.649Z,8.85
2023-04-12T01:09:51.488Z,8.87
2023-04-12T01:12:38.755Z,8.86
2023-04-12T01:15:14.798Z,8.79
2023-04-12T01:17:49.047Z,8.75
2023-04-12T01:20:21.718Z,8.75
2023-04-12T01:22:55.038Z,8.75
2023-04-12T01:25:29.262Z,8.74
2023-04-12T01:27:57.738Z,8.72
2023-04-12T01:30:26.814Z,8.70
2023-04-12T01:32:56.231Z,8.66
2023-04-12T01:35:26.531Z,8.62
2023-04-12T01:37:54.389Z,8.60
2023-04-12T01:40:22.263Z,8.57
2023-04-12T01:42:50.318Z,8.56
2023-04-12T01:45:24.524Z,8.57
2023-04-12T01:47:52.396Z,8.55
2023-04-12T01:50:23.743Z,8.54
2023-04-12T01:53:03.327Z,8.49
2023-04-12T01:55:32.943Z,8.44
2023-04-12T01:58:01.338Z,8.43
2023-04-12T02:00:29.534Z,8.41
2023-04-12T02:03:01.838Z,8.40
2023-04-12T02:05:31.379Z,8.40
2023-04-12T02:07:59.551Z,8.42
2023-04-12T02:10:36.758Z,8.44
2023-04-12T02:13:05.273Z,8.49
2023-04-12T02:15:33.611Z,8.52
2023-04-12T02:18:03.595Z,8.53
2023-04-12T02:20:32.452Z,8.58
2023-04-12T02:23:00.637Z,8.63
2023-04-12T02:25:28.569Z,8.63
2023-04-12T02:27:56.748Z,8.61
2023-04-12T02:30:29.140Z,8.58
2023-04-12T02:32:58.824Z,8.60
2023-04-12T02:35:31.023Z,8.62
2023-04-12T02:38:08.655Z,8.62
2023-04-12T02:40:39.602Z,8.60
2023-04-12T02:43:14.657Z,8.58
2023-04-12T02:45:47.145Z,8.58
2023-04-12T02:48:15.927Z,8.55
2023-04-12T02:50:44.105Z,8.54
2023-04-12T02:53:22.606Z,8.55
2023-04-12T02:56:01.276Z,8.54
2023-04-12T02:58:29.659Z,8.54
2023-04-12T03:01:00.279Z,8.55
2023-04-12T03:03:32.181Z,8.56
2023-04-12T03:06:04.654Z,8.52
2023-04-12T03:08:36.257Z,8.54
2023-04-12T03:11:04.566Z,8.60
2023-04-12T03:13:32.490Z,8.61
2023-04-12T03:16:20.183Z,8.61
2023-04-12T03:18:50.320Z,8.62
2023-04-12T03:21:19.834Z,8.62
2023-04-12T03:23:47.975Z,8.65
2023-04-12T03:26:20.649Z,8.68
2023-04-12T03:29:01.181Z,8.70
2023-04-12T03:31:31.523Z,8.73
2023-04-12T03:34:04.959Z,8.76
2023-04-12T03:36:34.004Z,8.77
2023-04-12T03:39:08.879Z,8.76
2023-04-12T03:41:38.305Z,8.72
2023-04-12T03:44:07.661Z,8.72
2023-04-12T03:46:42.092Z,8.69
2023-04-12T03:49:12.088Z,8.65
2023-04-12T03:51:43.928Z,8.64
2023-04-12T03:54:13.422Z,8.59
2023-04-12T03:56:58.399Z,8.51
2023-04-12T03:59:32.948Z,8.51
2023-04-12T04:02:02.878Z,8.55
2023-04-12T04:04:32.252Z,8.60
2023-04-12T04:07:04.174Z,8.57
2023-04-12T04:09:38.776Z,8.55
2023-04-12T04:12:08.272Z,8.53
2023-04-12T04:14:37.553Z,8.54
2023-04-12T04:17:06.427Z,8.49
2023-04-12T04:19:37.396Z,8.46
2023-04-12T04:22:05.413Z,8.45
2023-04-12T04:24:34.296Z,8.46
2023-04-12T04:27:02.459Z,8.44
2023-04-12T04:29:31.783Z,8.46
2023-04-12T04:32:01.581Z,8.46
2023-04-12T04:34:31.858Z,8.44
2023-04-12T04:37:08.150Z,8.37
2023-04-12T04:39:36.544Z,8.38
2023-04-12T04:42:06.689Z,8.41
2023-04-12T04:44:40.070Z,8.41
2023-04-12T04:47:10.051Z,8.45
2023-04-12T04:49:39.292Z,8.50
2023-04-12T04:52:18.571Z,8.51
2023-04-12T04:54:47.706Z,8.52
2023-04-12T04:57:22.465Z,8.51
2023-04-12T04:59:51.326Z,8.50
2023-04-12T05:02:19.419Z,8.43
2023-04-12T05:04:49.729Z,8.45
2023-04-12T05:07:20.187Z,8.52
2023-04-12T05:09:49.014Z,8.52
2023-04-12T05:12:20.993Z,8.54
2023-04-12T05:15:05.018Z,8.57
2023-04-12T05:17:39.570Z,8.59
2023-04-12T05:20:08.215Z,8.58
2023-04-12T05:22:36.161Z,8.58
2023-04-12T05:25:04.912Z,8.56
2023-04-12T05:27:35.384Z,8.55
2023-04-12T05:30:05.119Z,8.55
2023-04-12T05:32:41.236Z,8.53
2023-04-12T05:35:10.769Z,8.54
2023-04-12T05:37:58.556Z,8.53
2023-04-12T05:40:26.568Z,8.57
2023-04-12T05:42:55.203Z,8.60
2023-04-12T05:45:23.752Z,8.62
2023-04-12T05:47:51.988Z,8.64
2023-04-12T05:50:20.879Z,8.63
2023-04-12T05:52:54.670Z,8.62
2023-04-12T05:55:26.700Z,8.64
2023-04-12T05:57:54.807Z,8.64
2023-04-12T06:00:24.210Z,8.65
2023-04-12T06:02:53.272Z,8.69
2023-04-12T06:05:22.920Z,8.71
2023-04-12T06:07:51.974Z,8.75
2023-04-12T06:10:19.931Z,8.75
2023-04-12T06:12:50.839Z,8.79
2023-04-12T06:15:22.188Z,8.80
2023-04-12T06:17:55.293Z,8.80
2023-04-12T06:20:24.668Z,8.82
2023-04-12T06:22:52.864Z,8.85
2023-04-12T06:25:23.080Z,8.88
2023-04-12T06:27:51.625Z,8.90
2023-04-12T06:30:21.151Z,8.94
2023-04-12T06:32:52.414Z,8.96
2023-04-12T06:35:21.617Z,8.98
2023-04-12T06:37:50.447Z,8.96
2023-04-12T06:40:19.776Z,8.97
2023-04-12T06:42:48.431Z,9.00
2023-04-12T06:45:22.984Z,9.02
2023-04-12T06:47:50.959Z,9.03
2023-04-12T06:50:19.070Z,9.02
2023-04-12T06:52:49.513Z,9.05
2023-04-12T06:55:17.814Z,9.07
2023-04-12T06:57:46.197Z,9.09
2023-04-12T07:00:18.941Z,9.14
2023-04-12T07:02:47.164Z,9.19
2023-04-12T07:05:15.116Z,9.25
2023-04-12T07:07:44.505Z,9.28
2023-04-12T07:10:13.202Z,9.30
2023-04-12T07:12:41.981Z,9.29
2023-04-12T07:15:14.061Z,9.31
2023-04-12T07:17:42.283Z,9.34
2023-04-12T07:20:10.778Z,9.33
2023-04-12T07:22:43.089Z,9.33
2023-04-12T07:25:11.231Z,9.31
2023-04-12T07:27:39.179Z,9.29
2023-04-12T07:30:07.804Z,9.30
2023-04-12T07:32:35.830Z,9.32
2023-04-12T07:35:08.537Z,9.32
2023-04-12T07:37:37.713Z,9.34
2023-04-12T07:40:08.226Z,9.37
2023-04-12T07:42:36.529Z,9.40
2023-04-12T07:45:05.052Z,9.43
2023-04-12T07:47:36.169Z,9.44
2023-04-12T07:50:04.442Z,9.43
2023-04-12T07:52:32.403Z,9.42
2023-04-12T07:55:06.543Z,9.42
2023-04-12T07:57:34.698Z,9.42
2023-04-12T08:00:02.558Z,9.44
2023-04-12T08:02:41.506Z,9.48
2023-04-12T08:05:10.160Z,9.52
2023-04-12T08:07:46.450Z,9.55
2023-04-12T08:10:14.486Z,9.58
2023-04-12T08:12:42.650Z,9.60
2023-04-12T08:15:13.824Z,9.58
2023-04-12T08:17:44.045Z,9.61
2023-04-12T08:20:12.157Z,9.64
2023-04-12T08:22:40.142Z,9.69
2023-04-12T08:25:08.906Z,9.72
2023-04-12T08:27:37.088Z,9.74
2023-04-12T08:30:06.180Z,9.76
2023-04-12T08:32:37.538Z,9.81
2023-04-12T08:35:05.635Z,9.84
2023-04-12T08:37:34.037Z,9.85
2023-04-12T08:40:05.038Z,9.85
2023-04-12T08:42:34.403Z,9.85
2023-04-12T08:45:06.334Z,9.87
2023-04-12T08:47:34.940Z,9.91
2023-04-12T08:50:13.239Z,9.96
2023-04-12T08:52:42.743Z,9.98
2023-04-12T08:55:11.281Z,9.99
2023-04-12T08:57:40.081Z,10.02
2023-04-12T09:00:09.366Z,10.02
2023-04-12T09:02:46.489Z,10.01
2023-04-12T09:05:15.569Z,10.04
2023-04-12T09:07:43.792Z,10.07
2023-04-12T09:10:11.550Z,10.08
2023-04-12T09:12:47.212Z,10.07
2023-04-12T09:15:17.711Z,10.07
2023-04-12T09:17:46.225Z,10.06
2023-04-12T09:20:21.625Z,10.03
2023-04-12T09:22:50.123Z,10.02
2023-04-12T09:25:17.928Z,10.05
2023-04-12T09:27:52.560Z,10.09
2023-04-12T09:30:20.599Z,10.11
2023-04-12T09:33:12.477Z,10.11
2023-04-12T09:35:42.932Z,10.09
2023-04-12T09:38:11.087Z,10.07
2023-04-12T09:40:40.640Z,10.11
2023-04-12T09:43:08.647Z,10.13
2023-04-12T09:45:38.748Z,10.15
2023-04-12T09:48:07.117Z,10.14
2023-04-12T09:50:35.070Z,10.13
2023-04-12T09:53:05.170Z,10.16
2023-04-12T09:55:33.474Z,10.18
2023-04-12T09:58:01.979Z,10.19
2023-04-12T10:00:30.728Z,10.19
2023-04-12T10:02:59.053Z,10.19
2023-04-12T10:05:27.967Z,10.18
2023-04-12T10:07:58.467Z,10.20
2023-04-12T10:10:29.568Z,10.20
2023-04-12T10:12:57.656Z,10.20
2023-04-12T10:15:25.864Z,10.21
2023-04-12T10:18:00.974Z,10.23
2023-04-12T10:20:29.744Z,10.22
2023-04-12T10:22:59.703Z,10.21
2023-04-12T10:25:31.133Z,10.23
2023-04-12T10:28:12.716Z,10.23
2023-04-12T10:30:42.692Z,10.23
2023-04-12T10:33:31.075Z,10.22
2023-04-12T10:36:04.167Z,10.22
2023-04-12T10:38:46.788Z,10.25
2023-04-12T10:41:16.397Z,10.28
2023-04-12T10:43:47.954Z,10.30
2023-04-12T10:46:36.774Z,10.30
2023-04-12T10:49:08.687Z,10.31
2023-04-12T10:52:00.372Z,10.31
2023-04-12T10:54:29.759Z,10.33
2023-04-12T10:56:57.854Z,10.35
2023-04-12T10:59:55.796Z,10.36
2023-04-12T11:02:24.017Z,10.36
2023-04-12T11:05:10.710Z,10.38
2023-04-12T11:07:55.000Z,10.40
2023-04-12T11:10:50.892Z,10.41
2023-04-12T11:13:36.997Z,10.39
2023-04-12T11:16:06.844Z,10.38
2023-04-12T11:18:36.395Z,10.38
2023-04-12T11:21:04.990Z,10.41
2023-04-12T11:23:41.290Z,10.41
2023-04-12T11:26:10.846Z,10.42
2023-04-12T11:28:39.117Z,10.42
2023-04-12T11:31:08.452Z,10.38
2023-04-12T11:33:37.593Z,10.38
2023-04-12T11:36:14.474Z,10.39
2023-04-12T11:38:43.062Z,10.42
2023-04-12T11:41:11.867Z,10.45
2023-04-12T11:43:40.394Z,10.48
2023-04-12T11:46:08.345Z,10.48
2023-04-12T11:48:39.015Z,10.48
2023-04-12T11:51:25.322Z,10.49
2023-04-12T11:53:54.610Z,10.48
2023-04-12T11:56:22.846Z,10.50
2023-04-12T11:58:51.084Z,10.52
2023-04-12T12:01:19.618Z,10.53
2023-04-12T12:03:49.162Z,10.54
2023-04-12T12:06:17.574Z,10.55
2023-04-12T12:08:46.132Z,10.57
2023-04-12T12:11:14.132Z,10.58
2023-04-12T12:13:49.245Z,10.62
2023-04-12T12:16:17.783Z,10.66
2023-04-12T12:18:51.071Z,10.69
2023-04-12T12:21:22.011Z,10.69
2023-04-12T12:23:50.356Z,10.68
2023-04-12T12:26:25.279Z,10.67
2023-04-12T12:28:54.190Z,10.69
2023-04-12T12:31:23.368Z,10.72
2023-04-12T12:33:55.694Z,10.72
2023-04-12T12:36:32.347Z,10.74
2023-04-12T12:39:07.230Z,10.77
2023-04-12T12:41:35.972Z,10.81
2023-04-12T12:44:05.352Z,10.84
2023-04-12T12:49:04.940Z,10.83
2023-04-12T12:51:33.322Z,10.82
2023-04-12T12:54:01.510Z,10.82
2023-04-12T12:56:30.400Z,10.81
2023-04-12T12:58:58.632Z,10.82
2023-04-12T13:01:27.862Z,10.83
2023-04-12T13:03:56.825Z,10.85
2023-04-12T13:06:28.509Z,10.88
2023-04-12T13:08:56.805Z,10.91
2023-04-12T13:11:29.987Z,10.95
2023-04-12T13:13:58.917Z,10.96
2023-04-12T13:16:27.244Z,10.95
2023-04-12T13:18:56.225Z,10.92
2023-04-12T13:21:27.482Z,10.92
2023-04-12T13:23:55.665Z,10.91
2023-04-12T13:26:25.798Z,10.93
2023-04-12T13:28:53.983Z,10.95
2023-04-12T13:31:28.501Z,10.98
2023-04-12T13:33:58.047Z,11.01
2023-04-12T13:36:27.491Z,11.02
2023-04-12T13:38:55.725Z,11.03
2023-04-12T13:41:23.957Z,11.04
2023-04-12T13:43:52.210Z,11.01
2023-04-12T13:46:21.366Z,10.97
2023-04-12T13:48:49.974Z,10.96
2023-04-12T13:51:18.266Z,10.97
2023-04-12T13:53:51.372Z,10.99
2023-04-12T13:56:19.363Z,10.99
2023-04-12T13:58:47.436Z,11.01
2023-04-12T14:01:17.381Z,11.02
2023-04-12T14:03:46.099Z,11.01
2023-04-12T14:06:14.060Z,11.01
2023-04-12T14:08:41.896Z,11.01
2023-04-12T14:11:10.452Z,11.01
2023-04-12T14:13:38.440Z,11.00
2023-04-12T14:16:07.661Z,10.97
2023-04-12T14:18:38.094Z,10.98
2023-04-12T14:21:06.365Z,10.99
2023-04-12T14:23:34.379Z,10.96
2023-04-12T14:26:02.814Z,10.97
2023-04-12T14:28:31.776Z,10.99
2023-04-12T14:31:04.299Z,11.00
2023-04-12T14:33:34.424Z,11.03
2023-04-12T14:36:05.192Z,11.06
2023-04-12T14:38:33.882Z,11.08
2023-04-12T14:41:02.166Z,11.10
2023-04-12T14:43:30.394Z,11.12
2023-04-12T14:46:01.024Z,11.15
2023-04-12T14:48:29.816Z,11.15
2023-04-12T14:50:57.889Z,11.14
2023-04-12T14:53:26.196Z,11.14
2023-04-12T14:55:54.397Z,11.11
2023-04-12T14:58:22.998Z,11.09
2023-04-12T15:00:51.485Z,11.12
2023-04-12T15:03:20.987Z,11.14
2023-04-12T15:05:49.919Z,11.15
2023-04-12T15:08:19.925Z,11.16
2023-04-12T15:10:47.929Z,11.16
2023-04-12T15:13:16.020Z,11.16
2023-04-12T15:15:47.593Z,11.14
2023-04-12T15:18:16.022Z,11.12
2023-04-12T15:20:44.280Z,11.13
2023-04-12T15:23:14.338Z,11.13
2023-04-12T15:25:42.386Z,11.09
2023-04-12T15:28:10.708Z,11.07
2023-04-12T15:30:42.386Z,11.04
2023-04-12T15:33:11.559Z,11.05
2023-04-12T15:35:39.482Z,11.02
2023-04-12T15:38:08.180Z,11.02
2023-04-12T15:40:37.240Z,10.99
2023-04-12T15:43:05.115Z,10.93
2023-04-12T15:45:37.052Z,10.88
2023-04-12T15:48:06.994Z,10.84
2023-04-12T15:50:35.772Z,10.77
2023-04-12T15:53:03.934Z,10.72
2023-04-12T15:55:32.183Z,10.68
2023-04-12T15:58:00.485Z,10.66
2023-04-12T16:00:31.947Z,10.62
2023-04-12T16:03:00.322Z,10.59
2023-04-12T16:05:28.649Z,10.57
2023-04-12T16:08:00.652Z,10.56
2023-04-12T16:10:30.362Z,10.56
2023-04-12T16:12:58.638Z,10.55
2023-04-12T16:15:26.944Z,10.52
2023-04-12T16:17:56.305Z,10.50
2023-04-12T16:20:25.494Z,10.48
2023-04-12T16:22:56.826Z,10.44
2023-04-12T16:25:25.833Z,10.44
2023-04-12T16:27:54.952Z,10.43
2023-04-12T16:30:23.024Z,10.41
2023-04-12T16:32:52.322Z,10.39
2023-04-12T16:35:20.430Z,10.37
2023-04-12T16:37:48.582Z,10.36
2023-04-12T16:40:17.444Z,10.34
2023-04-12T16:42:46.002Z,10.32
2023-04-12T16:45:15.255Z,10.31
2023-04-12T16:47:45.829Z,10.33
2023-04-12T16:50:15.821Z,10.36
2023-04-12T16:52:44.654Z,10.41
2023-04-12T16:55:12.854Z,10.42
2023-04-12T16:57:41.747Z,10.45
2023-04-12T17:00:19.686Z,10.48
2023-04-12T17:02:49.225Z,10.51
2023-04-12T17:05:18.659Z,10.53
2023-04-12T17:07:50.297Z,10.55
2023-04-12T17:10:19.730Z,10.54
2023-04-12T17:12:48.552Z,10.55
2023-04-12T17:15:17.725Z,10.57
2023-04-12T17:17:46.848Z,10.59
2023-04-12T17:20:16.985Z,10.60
2023-04-12T17:22:44.952Z,10.62
2023-04-12T17:25:14.534Z,10.62
2023-04-12T17:27:44.261Z,10.62
2023-04-12T17:30:12.705Z,10.61
2023-04-12T17:32:53.583Z,10.60
2023-04-12T17:35:21.788Z,10.63
2023-04-12T17:37:49.995Z,10.65
2023-04-12T17:40:19.400Z,10.65
2023-04-12T17:42:48.102Z,10.64
2023-04-12T17:45:18.372Z,10.62
2023-04-12T17:47:46.844Z,10.61
2023-04-12T17:50:16.165Z,10.60
2023-04-12T17:52:44.178Z,10.60
2023-04-12T17:55:13.019Z,10.59
2023-04-12T17:57:41.651Z,10.57
2023-04-12T18:00:16.098Z,10.59
2023-04-12T18:02:44.587Z,10.60
2023-04-12T18:05:13.195Z,10.57
2023-04-12T18:07:42.536Z,10.57
2023-04-12T18:10:13.121Z,10.59
2023-04-12T18:12:42.197Z,10.60
2023-04-12T18:15:10.167Z,10.60
2023-04-12T18:17:44.000Z,10.60
2023-04-12T18:20:12.582Z,10.58
2023-04-12T18:22:40.671Z,10.57
2023-04-12T18:25:12.551Z,10.56
2023-04-12T18:27:41.795Z,10.57
2023-04-12T18:30:10.053Z,10.59
2023-04-12T18:32:43.883Z,10.61
2023-04-12T18:35:11.964Z,10.64
2023-04-12T18:37:41.522Z,10.63
2023-04-12T18:40:10.712Z,10.65
2023-04-12T18:42:38.785Z,10.66
2023-04-12T18:45:09.009Z,10.71
2023-04-12T18:47:39.209Z,10.74
2023-04-12T18:50:07.975Z,10.78
2023-04-12T18:52:37.815Z,10.83
2023-04-12T18:55:08.816Z,10.86
2023-04-12T18:57:37.977Z,10.89
2023-04-12T19:00:13.695Z,10.92
2023-04-12T19:02:42.503Z,10.94
2023-04-12T19:05:11.456Z,10.99
2023-04-12T19:07:39.535Z,11.02
2023-04-12T19:10:08.985Z,11.02
2023-04-12T19:12:37.272Z,11.05
2023-04-12T19:15:08.623Z,11.06
2023-04-12T19:17:39.065Z,11.04
2023-04-12T19:20:07.582Z,11.03
2023-04-12T19:22:36.470Z,10.99
2023-04-12T19:25:04.664Z,10.96
2023-04-12T19:27:33.253Z,10.96
2023-04-12T19:30:01.319Z,10.96
2023-04-12T19:32:34.456Z,10.91
2023-04-12T19:35:02.505Z,10.87
2023-04-12T19:37:34.257Z,10.83
2023-04-12T19:40:02.520Z,10.81
2023-04-12T19:42:31.174Z,10.79
2023-04-12T19:45:00.738Z,10.77
2023-04-12T19:47:29.074Z,10.75
2023-04-12T19:50:02.245Z,10.76
2023-04-12T19:52:30.610Z,10.78
2023-04-12T19:55:01.628Z,10.80
2023-04-12T19:57:31.078Z,10.83
2023-04-12T19:59:59.467Z,10.84
2023-04-12T20:02:27.832Z,10.85
2023-04-12T20:04:56.055Z,10.86
2023-04-12T20:07:23.920Z,10.85
2023-04-12T20:09:51.610Z,10.84
2023-04-12T20:12:19.668Z,10.84
2023-04-12T20:14:48.213Z,10.85
2023-04-12T20:17:16.223Z,10.84
2023-04-12T20:19:43.948Z,10.81
2023-04-12T20:22:12.421Z,10.79
2023-04-12T20:24:40.432Z,10.79
2023-04-12T20:27:09.471Z,10.77
2023-04-12T20:29:37.501Z,10.75
2023-04-12T20:32:05.429Z,10.75
2023-04-12T20:34:34.275Z,10.76
2023-04-12T20:37:02.734Z,10.77
2023-04-12T20:39:30.780Z,10.78
2023-04-12T20:42:01.173Z,10.79
2023-04-12T20:44:30.031Z,10.77
2023-04-12T20:46:58.665Z,10.78
2023-04-12T20:49:27.861Z,10.78
2023-04-12T20:51:59.285Z,10.78
2023-04-12T20:54:30.088Z,10.78
2023-04-12T20:56:59.776Z,10.77
2023-04-12T20:59:31.757Z,10.75
2023-04-12T21:02:00.591Z,10.75
2023-04-12T21:04:28.856Z,10.77
2023-04-12T21:06:57.657Z,10.77
2023-04-12T21:09:25.660Z,10.74
2023-04-12T21:11:53.638Z,10.75
2023-04-12T21:14:21.765Z,10.76
2023-04-12T21:16:51.116Z,10.75
2023-04-12T21:19:18.942Z,10.78
2023-04-12T21:21:51.219Z,10.77
2023-04-12T21:24:20.524Z,10.76
2023-04-12T21:26:54.244Z,10.78
2023-04-12T21:29:32.000Z,10.78
2023-04-12T21:32:02.204Z,10.78
2023-04-12T21:34:32.581Z,10.76
2023-04-12T21:37:01.355Z,10.72
2023-04-12T21:39:29.282Z,10.67
2023-04-12T21:41:58.103Z,10.61
2023-04-12T21:44:26.747Z,10.60
2023-04-12T21:46:54.734Z,10.62
2023-04-12T21:49:24.036Z,10.65
2023-04-12T21:51:52.462Z,10.65
2023-04-12T21:54:20.485Z,10.67
2023-04-12T21:56:48.338Z,10.66
2023-04-12T21:59:16.645Z,10.64
2023-04-12T22:01:44.512Z,10.60
2023-04-12T22:04:12.934Z,10.59
2023-04-12T22:06:44.409Z,10.56
2023-04-12T22:09:12.984Z,10.55
2023-04-12T22:11:40.691Z,10.57
2023-04-12T22:14:15.594Z,10.55
2023-04-12T22:16:45.429Z,10.49
2023-04-12T22:19:13.345Z,10.45
2023-04-12T22:21:42.382Z,10.43
2023-04-12T22:24:10.565Z,10.36
2023-04-12T22:26:38.481Z,10.35
2023-04-12T22:29:06.634Z,10.36
2023-04-12T22:31:35.601Z,10.35
2023-04-12T22:34:04.532Z,10.34
2023-04-12T22:36:37.412Z,10.38
2023-04-12T22:39:06.455Z,10.42
2023-04-12T22:41:35.032Z,10.45
2023-04-12T22:44:09.453Z,10.44
2023-04-12T22:46:39.276Z,10.43
2023-04-12T22:49:07.253Z,10.48
2023-04-12T22:51:35.538Z,10.51
2023-04-12T22:54:06.138Z,10.51
2023-04-12T22:56:34.496Z,10.52
2023-04-12T22:59:03.827Z,10.50
2023-04-12T23:01:31.797Z,10.52
2023-04-12T23:04:01.060Z,10.54
2023-04-12T23:06:31.621Z,10.47
2023-04-12T23:09:00.236Z,10.34
2023-04-12T23:11:28.982Z,10.24
2023-04-12T23:14:04.537Z,10.20
2023-04-12T23:16:34.004Z,10.16
2023-04-12T23:19:01.964Z,10.11
2023-04-12T23:21:30.766Z,10.12
2023-04-12T23:24:04.464Z,10.13
2023-04-12T23:26:34.517Z,10.11
2023-04-12T23:29:03.588Z,10.06
2023-04-12T23:31:34.537Z,10.01
2023-04-12T23:34:03.292Z,9.96
2023-04-12T23:36:31.562Z,9.90
2023-04-12T23:39:08.579Z,9.85
2023-04-12T23:41:37.088Z,9.82
2023-04-12T23:44:05.673Z,9.79
2023-04-12T23:46:35.032Z,9.76
2023-04-12T23:49:02.959Z,9.73
2023-04-12T23:51:33.520Z,9.69
2023-04-12T23:54:02.282Z,9.67
2023-04-12T23:56:30.726Z,9.66
2023-04-12T23:58:58.611Z,9.65
